createdAt,value
2023-06-05T00:02:15.498Z,100922.53
2023-06-05T00:04:42.271Z,100922.72
2023-06-05T00:07:09.044Z,100930.44
2023-06-05T00:09:36.157Z,100931.25
2023-06-05T00:12:02.930Z,100933.91
2023-06-05T00:14:29.592Z,100920.41
2023-06-05T00:16:56.424Z,100922.41
2023-06-05T00:19:23.312Z,100922.06
2023-06-05T00:21:50.092Z,100919.63
2023-06-05T00:24:17.116Z,100921.41
2023-06-05T00:26:44.049Z,100921.59
2023-06-05T00:29:10.929Z,100924.09
2023-06-05T00:31:37.718Z,100923.56
2023-06-05T00:34:04.399Z,100926.22
2023-06-05T00:36:33.418Z,100913.34
2023-06-05T00:39:00.089Z,100908.59
2023-06-05T00:41:27.003Z,100911.06
2023-06-05T00:43:53.738Z,100907.28
2023-06-05T00:46:20.662Z,100910.78
2023-06-05T00:48:47.780Z,100915.53
2023-06-05T00:51:17.813Z,100903.03
2023-06-05T00:53:48.337Z,100904.53
2023-06-05T00:56:17.368Z,100910.59
2023-06-05T00:58:44.164Z,100904.66
2023-06-05T01:01:12.542Z,100908.44
2023-06-05T01:03:39.670Z,100908.81
2023-06-05T01:06:06.648Z,100907.47
2023-06-05T01:08:35.049Z,100893.31
2023-06-05T01:11:04.526Z,100896.44
2023-06-05T01:13:36.265Z,100898.06
2023-06-05T01:16:03.841Z,100905.78
2023-06-05T01:18:30.772Z,100909.63
2023-06-05T01:21:02.074Z,100904.66
2023-06-05T01:23:29.134Z,100906.47
2023-06-05T01:26:02.523Z,100914.56
2023-06-05T01:28:31.926Z,100902.56
2023-06-05T01:31:11.615Z,100902.88
2023-06-05T01:34:10.366Z,100899.88
2023-06-05T01:36:38.859Z,100905.50
2023-06-05T01:39:06.337Z,100901.06
2023-06-05T01:41:34.447Z,100901.38
2023-06-05T01:44:02.305Z,100900.22
2023-06-05T01:46:30.196Z,100898.41
2023-06-05T01:48:57.621Z,100896.94
2023-06-05T01:51:24.317Z,100903.66
2023-06-05T01:53:51.023Z,100906.31
2023-06-05T01:56:18.020Z,100908.59
2023-06-05T01:58:44.789Z,100900.22
2023-06-05T02:01:11.432Z,100905.81
2023-06-05T02:03:38.361Z,100899.75
2023-06-05T02:06:05.401Z,100889.38
2023-06-05T02:08:32.214Z,100902.19
2023-06-05T02:10:58.904Z,100898.06
2023-06-05T02:13:25.631Z,100898.22
2023-06-05T02:15:52.274Z,100898.88
2023-06-05T02:18:19.223Z,100900.03
2023-06-05T02:20:46.069Z,100896.44
2023-06-05T02:23:12.832Z,100899.38
2023-06-05T02:25:39.544Z,100898.72
2023-06-05T02:28:06.345Z,100892.28
2023-06-05T02:30:33.209Z,100888.69
2023-06-05T02:32:59.878Z,100893.94
2023-06-05T02:35:26.629Z,100900.53
2023-06-05T02:37:53.543Z,100903.78
2023-06-05T02:40:20.514Z,100904.94
2023-06-05T02:42:47.214Z,100901.50
2023-06-05T02:45:14.198Z,100903.94
2023-06-05T02:47:40.952Z,100908.91
2023-06-05T02:50:08.673Z,100904.44
2023-06-05T02:52:35.378Z,100902.97
2023-06-05T02:55:05.404Z,100905.75
2023-06-05T02:57:32.515Z,100896.56
2023-06-05T02:59:59.484Z,100900.47
2023-06-05T03:02:26.572Z,100896.03
2023-06-05T03:04:53.309Z,100906.25
2023-06-05T03:07:23.268Z,100916.63
2023-06-05T03:09:50.055Z,100909.19
2023-06-05T03:12:16.737Z,100911.31
2023-06-05T03:14:43.463Z,100908.38
2023-06-05T03:17:10.136Z,100910.19
2023-06-05T03:19:37.005Z,100905.91
2023-06-05T03:22:03.988Z,100913.00
2023-06-05T03:24:30.816Z,100909.25
2023-06-05T03:26:57.494Z,100912.84
2023-06-05T03:29:24.447Z,100924.38
2023-06-05T03:31:51.445Z,100921.75
2023-06-05T03:34:18.104Z,100928.31
2023-06-05T03:36:44.806Z,100924.69
2023-06-05T03:39:11.462Z,100921.19
2023-06-05T03:41:38.153Z,100926.31
2023-06-05T03:44:05.105Z,100933.25
2023-06-05T03:46:32.035Z,100927.81
2023-06-05T03:48:58.745Z,100930.25
2023-06-05T03:51:26.899Z,100921.88
2023-06-05T03:53:53.599Z,100928.16
2023-06-05T03:56:22.861Z,100932.63
2023-06-05T03:58:49.539Z,100933.25
2023-06-05T04:01:16.287Z,100934.41
2023-06-05T04:03:43.271Z,100926.84
2023-06-05T04:06:10.078Z,100933.63
2023-06-05T04:08:36.852Z,100938.25
2023-06-05T04:11:03.535Z,100943.50
2023-06-05T04:13:30.362Z,100935.09
2023-06-05T04:15:57.312Z,100942.72
2023-06-05T04:18:24.191Z,100940.41
2023-06-05T04:20:50.930Z,100938.91
2023-06-05T04:23:17.823Z,100938.88
2023-06-05T04:25:44.512Z,100938.56
2023-06-05T04:28:11.398Z,100931.63
2023-06-05T04:30:38.524Z,100934.88
2023-06-05T04:33:05.482Z,100941.44
2023-06-05T04:35:32.278Z,100935.03
2023-06-05T04:37:59.205Z,100933.38
2023-06-05T04:40:26.269Z,100931.50
2023-06-05T04:42:53.019Z,100933.06
2023-06-05T04:45:19.865Z,100929.94
2023-06-05T04:47:46.811Z,100928.81
2023-06-05T04:50:27.928Z,100934.16
2023-06-05T04:52:55.007Z,100934.28
2023-06-05T04:55:22.440Z,100944.06
2023-06-05T04:57:49.477Z,100950.69
2023-06-05T05:00:19.234Z,100955.19
2023-06-05T05:02:46.487Z,100948.63
2023-06-05T05:05:13.417Z,100943.69
2023-06-05T05:07:43.421Z,100942.88
2023-06-05T05:10:11.182Z,100941.84
2023-06-05T05:12:38.427Z,100939.94
2023-06-05T05:15:06.297Z,100933.81
2023-06-05T05:17:33.218Z,100940.25
2023-06-05T05:19:59.990Z,100933.03
2023-06-05T05:22:27.887Z,100936.66
2023-06-05T05:24:54.981Z,100941.72
2023-06-05T05:27:21.801Z,100946.19
2023-06-05T05:29:51.214Z,100944.06
2023-06-05T05:32:20.521Z,100943.75
2023-06-05T05:34:47.311Z,100934.66
2023-06-05T05:37:14.567Z,100936.28
2023-06-05T05:39:46.829Z,100931.38
2023-06-05T05:42:17.094Z,100931.84
2023-06-05T05:47:24.659Z,100927.94
2023-06-05T05:49:51.392Z,100926.31
2023-06-05T05:52:20.428Z,100926.97
2023-06-05T05:54:47.183Z,100929.81
2023-06-05T05:57:15.280Z,100929.13
2023-06-05T05:59:42.220Z,100931.69
2023-06-05T06:02:12.656Z,100930.75
2023-06-05T06:04:42.586Z,100922.75
2023-06-05T06:07:09.431Z,100925.28
2023-06-05T06:09:40.767Z,100929.03
2023-06-05T06:12:08.013Z,100928.03
2023-06-05T06:14:36.020Z,100938.22
2023-06-05T06:17:03.674Z,100929.03
2023-06-05T06:19:30.462Z,100932.06
2023-06-05T06:22:03.012Z,100923.34
2023-06-05T06:24:31.426Z,100921.53
2023-06-05T06:26:58.900Z,100934.19
2023-06-05T06:29:28.333Z,100927.38
2023-06-05T06:31:55.104Z,100932.75
2023-06-05T06:34:22.164Z,100924.78
2023-06-05T06:36:49.009Z,100925.34
2023-06-05T06:39:15.878Z,100917.00
2023-06-05T06:41:42.692Z,100927.44
2023-06-05T06:44:09.611Z,100922.88
2023-06-05T06:46:41.302Z,100923.22
2023-06-05T06:49:11.100Z,100921.88
2023-06-05T06:51:37.864Z,100921.75
2023-06-05T06:54:04.576Z,100918.41
2023-06-05T06:56:31.281Z,100911.59
2023-06-05T06:58:58.042Z,100912.84
2023-06-05T07:01:25.135Z,100919.16
2023-06-05T07:03:55.180Z,100916.00
2023-06-05T07:06:24.679Z,100915.09
2023-06-05T07:08:56.580Z,100917.00
2023-06-05T07:11:27.062Z,100920.84
2023-06-05T07:13:54.286Z,100916.88
2023-06-05T07:16:24.559Z,100911.34
2023-06-05T07:18:54.320Z,100916.34
2023-06-05T07:21:26.390Z,100910.53
2023-06-05T07:23:55.319Z,100915.31
2023-06-05T07:26:22.238Z,100922.00
2023-06-05T07:28:49.160Z,100919.19
2023-06-05T07:31:22.296Z,100916.78
2023-06-05T07:33:50.069Z,100920.44
2023-06-05T07:36:17.096Z,100916.81
2023-06-05T07:38:43.769Z,100912.63
2023-06-05T07:41:12.454Z,100920.38
2023-06-05T07:43:42.419Z,100920.38
2023-06-05T07:46:09.252Z,100926.28
2023-06-05T07:48:38.771Z,100917.69
2023-06-05T07:51:05.549Z,100916.69
2023-06-05T07:53:36.548Z,100911.94
2023-06-05T07:56:03.885Z,100918.94
2023-06-05T07:58:39.716Z,100918.72
2023-06-05T08:01:06.395Z,100917.72
2023-06-05T08:03:33.231Z,100925.16
2023-06-05T08:06:00.255Z,100918.44
2023-06-05T08:08:29.396Z,100915.72
2023-06-05T08:11:06.950Z,100917.41
2023-06-05T08:13:33.862Z,100917.31
2023-06-05T08:16:00.780Z,100915.75
2023-06-05T08:18:32.884Z,100915.53
2023-06-05T08:20:59.753Z,100913.66
2023-06-05T08:23:31.261Z,100916.09
2023-06-05T08:26:08.140Z,100916.22
2023-06-05T08:28:35.009Z,100910.34
2023-06-05T08:31:01.916Z,100902.75
2023-06-05T08:33:33.789Z,100904.47
2023-06-05T08:36:05.968Z,100891.03
2023-06-05T08:38:36.124Z,100908.59
2023-06-05T08:41:15.204Z,100905.75
2023-06-05T08:43:42.093Z,100909.13
2023-06-05T08:46:14.456Z,100906.00
2023-06-05T08:48:50.832Z,100902.44
2023-06-05T08:51:22.271Z,100906.66
2023-06-05T08:54:04.147Z,100901.03
2023-06-05T08:56:32.704Z,100902.06
2023-06-05T08:59:02.401Z,100903.81
2023-06-05T09:01:30.925Z,100899.47
2023-06-05T09:03:59.175Z,100898.69
2023-06-05T09:06:25.947Z,100887.56
2023-06-05T09:08:52.772Z,100889.41
2023-06-05T09:11:29.370Z,100897.31
2023-06-05T09:13:58.465Z,100891.50
2023-06-05T09:16:44.996Z,100893.88
2023-06-05T09:19:12.787Z,100897.69
2023-06-05T09:22:32.791Z,100877.13
2023-06-05T09:24:59.658Z,100890.53
2023-06-05T09:27:26.614Z,100881.06
2023-06-05T09:30:03.970Z,100879.78
2023-06-05T09:32:30.870Z,100883.56
2023-06-05T09:34:58.176Z,100880.75
2023-06-05T09:37:37.331Z,100888.66
2023-06-05T09:40:05.522Z,100887.63
2023-06-05T09:42:33.281Z,100882.59
2023-06-05T09:45:01.545Z,100885.19
2023-06-05T09:47:33.137Z,100891.78
2023-06-05T09:50:06.016Z,100887.47
2023-06-05T09:52:36.155Z,100884.66
2023-06-05T09:55:09.365Z,100878.09
2023-06-05T09:57:43.487Z,100878.09
2023-06-05T10:00:19.905Z,100881.19
2023-06-05T10:02:55.370Z,100872.44
2023-06-05T10:05:27.938Z,100869.88
2023-06-05T10:07:55.002Z,100870.03
2023-06-05T10:10:25.927Z,100865.34
2023-06-05T10:12:55.704Z,100865.34
2023-06-05T10:15:24.983Z,100863.63
2023-06-05T10:17:57.129Z,100865.84
2023-06-05T10:20:26.377Z,100862.03
2023-06-05T10:22:54.177Z,100861.28
2023-06-05T10:25:24.892Z,100852.41
2023-06-05T10:28:19.170Z,100846.81
2023-06-05T10:31:07.437Z,100844.22
2023-06-05T10:33:45.687Z,100839.94
2023-06-05T10:36:35.655Z,100835.94
2023-06-05T10:39:03.854Z,100835.38
2023-06-05T10:41:33.430Z,100833.84
2023-06-05T10:44:01.476Z,100841.94
2023-06-05T10:46:28.199Z,100844.44
2023-06-05T10:49:17.302Z,100832.16
2023-06-05T10:51:57.504Z,100831.16
2023-06-05T10:54:24.305Z,100818.47
2023-06-05T10:56:57.322Z,100828.31
2023-06-05T10:59:26.382Z,100828.38
2023-06-05T11:02:16.172Z,100834.88
2023-06-05T11:04:45.555Z,100842.19
2023-06-05T11:07:18.785Z,100832.00
2023-06-05T11:10:03.503Z,100825.94
2023-06-05T11:12:36.869Z,100819.81
2023-06-05T11:15:11.356Z,100830.28
2023-06-05T11:17:48.397Z,100818.22
2023-06-05T11:20:24.510Z,100825.56
2023-06-05T11:22:56.263Z,100820.63
2023-06-05T11:25:22.879Z,100812.53
2023-06-05T11:27:50.540Z,100816.25
2023-06-05T11:30:28.017Z,100814.91
2023-06-05T11:32:58.180Z,100806.84
2023-06-05T11:35:29.273Z,100809.31
2023-06-05T11:38:23.693Z,100806.47
2023-06-05T11:40:51.233Z,100804.06
2023-06-05T11:43:18.057Z,100801.16
2023-06-05T11:46:05.052Z,100807.22
2023-06-05T11:48:43.396Z,100801.91
2023-06-05T11:51:10.268Z,100800.28
2023-06-05T11:53:44.021Z,100808.00
2023-06-05T11:56:15.245Z,100790.09
2023-06-05T11:58:42.776Z,100800.31
2023-06-05T12:01:19.799Z,100800.78
2023-06-05T12:04:07.564Z,100789.44
2023-06-05T12:06:46.000Z,100794.28
2023-06-05T12:09:13.819Z,100790.53
2023-06-05T12:11:42.263Z,100776.84
2023-06-05T12:14:10.856Z,100778.13
2023-06-05T12:16:46.258Z,100771.16
2023-06-05T12:19:22.016Z,100769.97
2023-06-05T12:22:03.391Z,100767.13
2023-06-05T12:24:30.243Z,100766.00
2023-06-05T12:26:59.594Z,100762.75
2023-06-05T12:29:34.837Z,100754.63
2023-06-05T12:32:03.579Z,100765.94
2023-06-05T12:34:56.928Z,100764.34
2023-06-05T12:37:36.236Z,100748.94
2023-06-05T12:40:06.750Z,100747.31
2023-06-05T12:42:36.942Z,100738.34
2023-06-05T12:45:07.822Z,100736.69
2023-06-05T12:47:35.411Z,100736.72
2023-06-05T12:50:07.773Z,100731.00
2023-06-05T12:52:35.212Z,100740.75
2023-06-05T12:55:02.527Z,100736.75
2023-06-05T12:57:29.271Z,100726.97
2023-06-05T13:00:02.103Z,100735.09
2023-06-05T13:02:28.952Z,100716.88
2023-06-05T13:04:55.944Z,100719.72
2023-06-05T13:07:25.716Z,100721.78
2023-06-05T13:09:57.194Z,100725.38
2023-06-05T13:12:23.969Z,100718.56
2023-06-05T13:14:50.756Z,100713.63
2023-06-05T13:17:20.665Z,100710.78
2023-06-05T13:19:47.744Z,100701.09
2023-06-05T13:22:14.695Z,100710.84
2023-06-05T13:24:41.372Z,100711.59
2023-06-05T13:27:08.159Z,100711.22
2023-06-05T13:29:35.134Z,100711.59
2023-06-05T13:32:01.998Z,100701.09
2023-06-05T13:34:30.310Z,100706.78
2023-06-05T13:37:02.679Z,100703.47
2023-06-05T13:39:37.073Z,100697.00
2023-06-05T13:42:04.003Z,100699.81
2023-06-05T13:44:33.501Z,100694.53
2023-06-05T13:47:02.402Z,100697.78
2023-06-05T13:49:29.552Z,100696.16
2023-06-05T13:51:56.475Z,100700.22
2023-06-05T13:54:23.715Z,100690.88
2023-06-05T13:56:50.624Z,100694.53
2023-06-05T13:59:17.576Z,100693.34
2023-06-05T14:01:44.330Z,100692.13
2023-06-05T14:04:11.522Z,100685.63
2023-06-05T14:06:38.260Z,100680.38
2023-06-05T14:09:05.662Z,100686.00
2023-06-05T14:11:32.829Z,100685.19
2023-06-05T14:13:59.597Z,100677.91
2023-06-05T14:16:27.319Z,100671.88
2023-06-05T14:18:54.078Z,100666.13
2023-06-05T14:21:23.260Z,100666.56
2023-06-05T14:23:51.247Z,100671.81
2023-06-05T14:26:21.140Z,100659.63
2023-06-05T14:28:47.823Z,100664.50
2023-06-05T14:31:16.586Z,100664.13
2023-06-05T14:33:43.563Z,100654.00
2023-06-05T14:36:10.511Z,100640.59
2023-06-05T14:38:37.669Z,100647.91
2023-06-05T14:41:04.583Z,100647.50
2023-06-05T14:43:31.272Z,100644.28
2023-06-05T14:45:58.027Z,100651.56
2023-06-05T14:48:24.926Z,100645.06
2023-06-05T14:50:51.760Z,100641.00
2023-06-05T14:53:18.641Z,100640.53
2023-06-05T14:55:46.184Z,100635.25
2023-06-05T14:58:12.917Z,100640.13
2023-06-05T15:00:42.324Z,100638.50
2023-06-05T15:03:09.706Z,100635.25
2023-06-05T15:05:36.595Z,100636.03
2023-06-05T15:08:03.695Z,100632.00
2023-06-05T15:10:30.722Z,100632.41
2023-06-05T15:12:57.607Z,100625.94
2023-06-05T15:15:27.565Z,100627.94
2023-06-05T15:17:54.290Z,100625.47
2023-06-05T15:20:24.673Z,100629.56
2023-06-05T15:23:11.405Z,100625.06
2023-06-05T15:25:40.742Z,100628.75
2023-06-05T15:28:07.453Z,100621.81
2023-06-05T15:30:34.199Z,100615.72
2023-06-05T15:33:01.119Z,100619.81
2023-06-05T15:35:27.822Z,100611.28
2023-06-05T15:37:54.618Z,100612.91
2023-06-05T15:40:21.404Z,100615.69
2023-06-05T15:43:03.490Z,100613.28
2023-06-05T15:45:30.191Z,100606.75
2023-06-05T15:47:56.870Z,100606.75
2023-06-05T15:50:23.757Z,100607.56
2023-06-05T15:52:50.799Z,100605.94
2023-06-05T15:55:17.561Z,100604.34
2023-06-05T15:57:44.433Z,100595.41
2023-06-05T16:00:11.607Z,100589.28
2023-06-05T16:02:41.320Z,100593.38
2023-06-05T16:05:09.056Z,100592.06
2023-06-05T16:07:36.021Z,100590.88
2023-06-05T16:10:03.255Z,100599.41
2023-06-05T16:12:29.970Z,100596.13
2023-06-05T16:14:56.907Z,100606.63
2023-06-05T16:17:23.977Z,100610.69
2023-06-05T16:19:52.949Z,100605.38
2023-06-05T16:22:20.578Z,100600.84
2023-06-05T16:24:47.309Z,100591.94
2023-06-05T16:27:14.274Z,100600.03
2023-06-05T16:29:41.068Z,100591.94
2023-06-05T16:32:08.081Z,100595.09
2023-06-05T16:34:34.939Z,100606.44
2023-06-05T16:37:01.758Z,100607.22
2023-06-05T16:39:28.576Z,100606.41
2023-06-05T16:41:55.345Z,100596.25
2023-06-05T16:44:22.260Z,100603.09
2023-06-05T16:46:49.155Z,100603.47
2023-06-05T16:49:15.965Z,100605.06
2023-06-05T16:51:42.754Z,100606.66
2023-06-05T16:54:09.499Z,100608.69
2023-06-05T16:56:36.446Z,100604.59
2023-06-05T16:59:13.589Z,100608.66
2023-06-05T17:01:40.377Z,100598.88
2023-06-05T17:04:08.885Z,100600.47
2023-06-05T17:06:36.399Z,100602.91
2023-06-05T17:09:03.696Z,100601.59
2023-06-05T17:11:30.618Z,100601.56
2023-06-05T17:13:57.322Z,100605.22
2023-06-05T17:16:24.339Z,100606.81
2023-06-05T17:18:51.106Z,100607.59
2023-06-05T17:21:17.979Z,100608.38
2023-06-05T17:23:44.908Z,100597.41
2023-06-05T17:26:11.638Z,100600.22
2023-06-05T17:28:41.199Z,100600.19
2023-06-05T17:31:08.379Z,100604.56
2023-06-05T17:33:35.344Z,100613.44
2023-06-05T17:36:02.126Z,100598.34
2023-06-05T17:38:28.783Z,100599.91
2023-06-05T17:40:55.420Z,100599.88
2023-06-05T17:43:22.244Z,100609.06
2023-06-05T17:45:49.098Z,100601.81
2023-06-05T17:48:16.150Z,100603.84
2023-06-05T17:50:44.067Z,100607.00
2023-06-05T17:53:10.962Z,100600.44
2023-06-05T17:55:37.691Z,100603.25
2023-06-05T17:58:04.463Z,100604.00
2023-06-05T18:00:31.575Z,100601.06
2023-06-05T18:02:58.729Z,100597.78
2023-06-05T18:05:28.294Z,100598.03
2023-06-05T18:07:54.967Z,100595.28
2023-06-05T18:10:22.033Z,100594.84
2023-06-05T18:12:49.107Z,100599.97
2023-06-05T18:15:15.917Z,100598.34
2023-06-05T18:17:42.631Z,100597.91
2023-06-05T18:20:10.050Z,100603.16
2023-06-05T18:22:36.845Z,100612.81
2023-06-05T18:25:04.079Z,100611.09
2023-06-05T18:27:30.764Z,100610.69
2023-06-05T18:29:57.458Z,100610.59
2023-06-05T18:32:24.153Z,100619.81
2023-06-05T18:34:50.927Z,100614.16
2023-06-05T18:37:17.658Z,100626.19
2023-06-05T18:39:44.557Z,100623.75
2023-06-05T18:42:11.302Z,100617.22
2023-06-05T18:44:38.892Z,100630.94
2023-06-05T18:47:07.787Z,100627.56
2023-06-05T18:49:34.551Z,100630.84
2023-06-05T18:52:03.006Z,100647.78
2023-06-05T18:54:29.870Z,100644.09
2023-06-05T18:56:56.611Z,100648.53
2023-06-05T18:59:23.255Z,100659.84
2023-06-05T19:01:50.096Z,100660.06
2023-06-05T19:04:16.840Z,100664.69
2023-06-05T19:06:43.884Z,100664.50
2023-06-05T19:09:10.549Z,100667.81
2023-06-05T19:11:38.931Z,100661.75
2023-06-05T19:14:05.910Z,100671.41
2023-06-05T19:16:32.913Z,100676.06
2023-06-05T19:18:59.797Z,100673.47
2023-06-05T19:21:26.738Z,100668.59
2023-06-05T19:23:53.502Z,100672.47
2023-06-05T19:26:20.236Z,100670.09
2023-06-05T19:28:46.915Z,100677.44
2023-06-05T19:31:13.838Z,100662.50
2023-06-05T19:33:41.593Z,100677.75
2023-06-05T19:36:08.620Z,100675.28
2023-06-05T19:38:35.504Z,100670.78
2023-06-05T19:41:02.211Z,100668.31
2023-06-05T19:43:29.271Z,100673.97
2023-06-05T19:45:56.142Z,100672.28
2023-06-05T19:48:23.036Z,100672.66
2023-06-05T19:50:49.897Z,100661.28
2023-06-05T19:53:19.589Z,100663.22
2023-06-05T19:55:46.590Z,100663.59
2023-06-05T19:58:13.464Z,100665.44
2023-06-05T20:00:41.650Z,100669.00
2023-06-05T20:03:08.512Z,100665.31
2023-06-05T20:05:35.236Z,100672.41
2023-06-05T20:08:02.023Z,100682.09
2023-06-05T20:10:29.249Z,100681.28
2023-06-05T20:12:55.950Z,100676.44
2023-06-05T20:15:22.584Z,100681.63
2023-06-05T20:17:49.317Z,100678.00
2023-06-05T20:20:16.010Z,100682.84
2023-06-05T20:22:42.717Z,100690.41
2023-06-05T20:25:09.916Z,100675.06
2023-06-05T20:27:36.778Z,100668.94
2023-06-05T20:30:03.626Z,100678.50
2023-06-05T20:32:30.327Z,100678.50
2023-06-05T20:34:57.097Z,100682.91
2023-06-05T20:37:23.728Z,100679.25
2023-06-05T20:39:50.404Z,100681.66
2023-06-05T20:42:17.138Z,100685.50
2023-06-05T20:44:43.912Z,100686.97
2023-06-05T20:47:10.714Z,100691.38
2023-06-05T20:49:37.426Z,100690.84
2023-06-05T20:52:04.655Z,100691.56
2023-06-05T20:54:31.390Z,100693.94
2023-06-05T20:57:09.078Z,100701.94
2023-06-05T20:59:35.775Z,100712.34
2023-06-05T21:02:02.547Z,100699.41
2023-06-05T21:04:29.579Z,100709.78
2023-06-05T21:06:56.302Z,100718.41
2023-06-05T21:09:23.103Z,100718.03
2023-06-05T21:11:49.846Z,100715.13
2023-06-05T21:14:16.525Z,100713.06
2023-06-05T21:16:43.279Z,100714.97
2023-06-05T21:19:10.002Z,100718.81
2023-06-05T21:21:36.696Z,100717.06
2023-06-05T21:24:03.595Z,100710.63
2023-06-05T21:26:30.474Z,100713.78
2023-06-05T21:28:57.253Z,100710.53
2023-06-05T21:31:23.956Z,100711.28
2023-06-05T21:33:50.778Z,100710.34
2023-06-05T21:36:17.705Z,100706.53
2023-06-05T21:38:44.557Z,100722.88
2023-06-05T21:41:11.474Z,100728.53
2023-06-05T21:43:38.312Z,100729.00
2023-06-05T21:46:05.097Z,100731.97
2023-06-05T21:48:31.840Z,100734.78
2023-06-05T21:50:58.546Z,100726.94
2023-06-05T21:53:25.452Z,100726.34
2023-06-05T21:55:52.124Z,100727.03
2023-06-05T21:58:18.901Z,100719.06
2023-06-05T22:00:45.716Z,100723.16
2023-06-05T22:03:12.499Z,100732.97
2023-06-05T22:05:39.278Z,100724.59
2023-06-05T22:08:06.084Z,100729.00
2023-06-05T22:10:32.795Z,100728.69
2023-06-05T22:12:59.523Z,100734.63
2023-06-05T22:15:26.190Z,100727.06
2023-06-05T22:17:53.113Z,100729.06
2023-06-05T22:20:19.867Z,100722.09
2023-06-05T22:22:46.738Z,100727.25
2023-06-05T22:25:13.690Z,100724.94
2023-06-05T22:27:40.384Z,100736.41
2023-06-05T22:30:07.915Z,100725.41
2023-06-05T22:32:35.810Z,100732.69
2023-06-05T22:35:02.508Z,100729.16
2023-06-05T22:37:29.267Z,100727.34
2023-06-05T22:39:56.121Z,100726.16
2023-06-05T22:42:22.873Z,100728.16
2023-06-05T22:44:49.606Z,100728.50
2023-06-05T22:47:16.261Z,100719.13
2023-06-05T22:49:43.312Z,100715.09
2023-06-05T22:52:10.192Z,100714.06
2023-06-05T22:54:37.383Z,100711.59
2023-06-05T22:57:04.495Z,100692.41
2023-06-05T22:59:31.492Z,100689.59
2023-06-05T23:01:58.598Z,100691.59
2023-06-05T23:04:25.389Z,100686.41
2023-06-05T23:06:52.612Z,100686.31
2023-06-05T23:09:20.295Z,100682.13
2023-06-05T23:11:47.157Z,100680.94
2023-06-05T23:14:14.132Z,100671.59
2023-06-05T23:16:40.831Z,100673.94
2023-06-05T23:19:07.609Z,100673.94
2023-06-05T23:21:34.302Z,100686.09
2023-06-05T23:24:01.124Z,100678.84
2023-06-05T23:26:27.963Z,100669.13
2023-06-05T23:28:54.744Z,100672.75
2023-06-05T23:31:21.501Z,100678.75
2023-06-05T23:33:48.314Z,100678.75
2023-06-05T23:36:15.104Z,100681.84
2023-06-05T23:38:41.880Z,100677.75
2023-06-05T23:41:08.702Z,100668.91
2023-06-05T23:43:35.541Z,100674.75
2023-06-05T23:46:02.392Z,100684.72
2023-06-05T23:48:29.144Z,100686.16
2023-06-05T23:50:55.968Z,100687.16
2023-06-05T23:53:22.638Z,100685.53
2023-06-05T23:55:49.385Z,100675.63
2023-06-05T23:58:16.103Z,100679.13
